createdAt,value
2022-12-14T00:01:38.661Z,95265.09
2022-12-14T00:04:05.517Z,95259.25
2022-12-14T00:06:33.921Z,95261.53
2022-12-14T00:09:03.643Z,95249.56
2022-12-14T00:11:32.661Z,95246.13
2022-12-14T00:14:02.787Z,95251.44
2022-12-14T00:16:32.838Z,95243.72
2022-12-14T00:19:01.311Z,95236.13
2022-12-14T00:21:28.695Z,95246.66
2022-12-14T00:23:57.049Z,95241.19
2022-12-14T00:26:29.982Z,95250.91
2022-12-14T00:28:57.392Z,95259.91
2022-12-14T00:31:25.428Z,95243.06
2022-12-14T00:33:52.930Z,95249.84
2022-12-14T00:36:20.309Z,95253.88
2022-12-14T00:38:47.174Z,95254.63
2022-12-14T00:41:14.176Z,95251.97
2022-12-14T00:43:41.289Z,95259.94
2022-12-14T00:46:08.482Z,95254.63
2022-12-14T00:48:35.687Z,95247.31
2022-12-14T00:51:03.139Z,95243.31
2022-12-14T00:53:30.388Z,95233.28
2022-12-14T00:55:57.228Z,95246.34
2022-12-14T00:58:25.542Z,95244.34
2022-12-14T01:01:07.885Z,95247.59
2022-12-14T01:03:35.091Z,95247.31
2022-12-14T01:06:02.674Z,95250.53
2022-12-14T01:08:36.215Z,95246.16
2022-12-14T01:11:08.348Z,95242.91
2022-12-14T01:13:36.678Z,95241.81
2022-12-14T01:16:10.800Z,95246.44
2022-12-14T01:18:40.169Z,95233.88
2022-12-14T01:21:13.715Z,95254.53
2022-12-14T01:23:41.548Z,95264.41
2022-12-14T01:26:08.447Z,95258.16
2022-12-14T01:28:35.761Z,95271.34
2022-12-14T01:31:18.918Z,95271.88
2022-12-14T01:33:46.753Z,95262.97
2022-12-14T01:36:19.489Z,95241.00
2022-12-14T01:38:47.249Z,95230.41
2022-12-14T01:41:31.755Z,95233.09
2022-12-14T01:44:02.415Z,95234.72
2022-12-14T01:47:06.127Z,95241.19
2022-12-14T01:50:02.209Z,95253.09
2022-12-14T01:52:41.012Z,95257.50
2022-12-14T01:55:19.113Z,95264.81
2022-12-14T01:57:56.701Z,95249.69
2022-12-14T02:00:23.781Z,95218.16
2022-12-14T02:03:13.056Z,95219.09
2022-12-14T02:05:45.964Z,95246.63
2022-12-14T02:08:14.933Z,95246.63
2022-12-14T02:10:42.150Z,95234.97
2022-12-14T02:13:22.841Z,95206.69
2022-12-14T02:15:50.829Z,95206.91
2022-12-14T02:18:24.106Z,95217.44
2022-12-14T02:21:15.708Z,95231.13
2022-12-14T02:24:37.591Z,95225.00
2022-12-14T02:27:15.636Z,95216.34
2022-12-14T02:30:17.657Z,95206.78
2022-12-14T02:33:26.387Z,95202.50
2022-12-14T02:36:08.194Z,95186.06
2022-12-14T02:38:46.846Z,95174.16
2022-12-14T02:41:56.445Z,95164.25
2022-12-14T02:44:52.674Z,95179.28
2022-12-14T02:48:02.083Z,95188.81
2022-12-14T02:51:18.456Z,95187.41
2022-12-14T02:54:14.377Z,95178.53
2022-12-14T02:56:50.344Z,95179.88
2022-12-14T02:59:18.554Z,95173.66
2022-12-14T03:01:47.999Z,95155.56
2022-12-14T03:04:15.325Z,95161.28
2022-12-14T03:07:00.074Z,95171.22
2022-12-14T03:09:31.721Z,95165.47
2022-12-14T03:12:07.718Z,95151.94
2022-12-14T03:14:41.992Z,95133.59
2022-12-14T03:17:23.809Z,95140.78
2022-12-14T03:20:00.992Z,95145.91
2022-12-14T03:22:36.824Z,95156.66
2022-12-14T03:25:48.742Z,95151.28
2022-12-14T03:28:42.979Z,95162.75
2022-12-14T03:31:25.913Z,95166.00
2022-12-14T03:33:55.867Z,95176.50
2022-12-14T03:36:36.010Z,95159.59
2022-12-14T03:39:07.946Z,95154.28
2022-12-14T03:41:34.635Z,95142.53
2022-12-14T03:44:24.377Z,95133.72
2022-12-14T03:47:33.143Z,95134.31
2022-12-14T03:50:17.898Z,95119.91
2022-12-14T03:52:58.225Z,95127.91
2022-12-14T03:55:43.528Z,95141.50
2022-12-14T03:58:25.581Z,95148.06
2022-12-14T04:01:06.644Z,95145.34
2022-12-14T04:03:57.141Z,95135.84
2022-12-14T04:06:46.920Z,95138.66
2022-12-14T04:09:24.426Z,95134.25
2022-12-14T04:12:32.613Z,95135.63
2022-12-14T04:15:29.292Z,95130.47
2022-12-14T04:18:21.135Z,95130.31
2022-12-14T04:21:02.437Z,95124.09
2022-12-14T04:23:55.110Z,95120.63
2022-12-14T04:26:29.054Z,95123.22
2022-12-14T04:29:28.386Z,95108.38
2022-12-14T04:32:17.506Z,95115.03
2022-12-14T04:34:50.908Z,95121.66
2022-12-14T04:37:20.916Z,95123.88
2022-12-14T04:40:05.320Z,95104.84
2022-12-14T04:42:36.465Z,95095.34
2022-12-14T04:45:17.353Z,95091.72
2022-12-14T04:48:00.207Z,95084.63
2022-12-14T04:50:43.935Z,95066.44
2022-12-14T04:53:17.473Z,95080.97
2022-12-14T04:55:58.535Z,95075.34
2022-12-14T04:58:29.028Z,95081.81
2022-12-14T05:01:30.977Z,95080.91
2022-12-14T05:04:36.073Z,95072.75
2022-12-14T05:07:22.510Z,95074.88
2022-12-14T05:10:07.118Z,95064.16
2022-12-14T05:12:47.397Z,95064.78
2022-12-14T05:15:23.472Z,95062.25
2022-12-14T05:17:50.866Z,95071.81
2022-12-14T05:20:22.223Z,95066.38
2022-12-14T05:22:49.799Z,95066.00
2022-12-14T05:25:17.369Z,95060.38
2022-12-14T05:27:44.299Z,95070.34
2022-12-14T05:30:12.083Z,95075.72
2022-12-14T05:32:39.780Z,95079.91
2022-12-14T05:35:08.903Z,95062.06
2022-12-14T05:37:35.809Z,95059.44
2022-12-14T05:40:02.763Z,95048.41
2022-12-14T05:42:29.643Z,95051.66
2022-12-14T05:44:56.560Z,95043.25
2022-12-14T05:47:23.635Z,95048.19
2022-12-14T05:49:50.988Z,95052.00
2022-12-14T05:52:17.985Z,95043.13
2022-12-14T05:54:44.793Z,95039.03
2022-12-14T05:57:11.718Z,95044.94
2022-12-14T05:59:38.777Z,95045.69
2022-12-14T06:02:05.829Z,95029.84
2022-12-14T06:04:32.914Z,95025.22
2022-12-14T06:06:59.816Z,95015.94
2022-12-14T06:09:26.880Z,95006.84
2022-12-14T06:11:53.785Z,95016.91
2022-12-14T06:14:21.178Z,95023.06
2022-12-14T06:16:49.094Z,95013.50
2022-12-14T06:19:16.259Z,95009.19
2022-12-14T06:21:43.882Z,95002.81
2022-12-14T06:24:13.195Z,94993.34
2022-12-14T06:26:41.040Z,94984.66
2022-12-14T06:29:15.507Z,94977.75
2022-12-14T06:31:42.318Z,94981.66
2022-12-14T06:34:10.370Z,94982.28
2022-12-14T06:36:41.184Z,94992.56
2022-12-14T06:39:12.605Z,94995.13
2022-12-14T06:41:40.548Z,94986.56
2022-12-14T06:44:14.095Z,94986.66
2022-12-14T06:46:41.657Z,94993.19
2022-12-14T06:49:14.762Z,94987.78
2022-12-14T06:51:42.692Z,94985.44
2022-12-14T06:54:12.316Z,94981.94
2022-12-14T06:56:40.573Z,94973.38
2022-12-14T06:59:08.774Z,94976.50
2022-12-14T07:01:37.211Z,94971.72
2022-12-14T07:04:05.459Z,94976.50
2022-12-14T07:06:36.865Z,94983.66
2022-12-14T07:09:06.629Z,94976.50
2022-12-14T07:11:33.634Z,94963.00
2022-12-14T07:14:03.051Z,94966.50
2022-12-14T07:16:29.890Z,94969.25
2022-12-14T07:18:57.350Z,94962.00
2022-12-14T07:21:25.471Z,94964.44
2022-12-14T07:23:52.828Z,94954.63
2022-12-14T07:26:23.935Z,94957.50
2022-12-14T07:28:51.265Z,94964.84
2022-12-14T07:31:24.356Z,94968.53
2022-12-14T07:33:57.482Z,94968.50
2022-12-14T07:36:26.346Z,94952.78
2022-12-14T07:38:55.732Z,94953.00
2022-12-14T07:41:28.087Z,94961.44
2022-12-14T07:43:55.891Z,94956.53
2022-12-14T07:46:25.981Z,94962.56
2022-12-14T07:48:56.280Z,94960.44
2022-12-14T07:51:27.333Z,94961.22
2022-12-14T07:53:54.907Z,94951.75
2022-12-14T07:56:25.179Z,94950.19
2022-12-14T07:58:53.929Z,94948.84
2022-12-14T08:01:24.489Z,94947.31
2022-12-14T08:03:58.120Z,94943.78
2022-12-14T08:06:27.879Z,94940.91
2022-12-14T08:08:55.828Z,94947.31
2022-12-14T08:11:23.404Z,94937.00
2022-12-14T08:13:58.652Z,94941.22
2022-12-14T08:16:26.401Z,94943.34
2022-12-14T08:18:55.406Z,94937.47
2022-12-14T08:21:24.041Z,94935.75
2022-12-14T08:23:53.785Z,94927.06
2022-12-14T08:26:21.793Z,94924.81
2022-12-14T08:28:48.750Z,94902.91
2022-12-14T08:31:20.574Z,94901.31
2022-12-14T08:33:47.860Z,94902.28
2022-12-14T08:36:21.598Z,94904.88
2022-12-14T08:39:01.244Z,94898.91
2022-12-14T08:41:29.491Z,94900.69
2022-12-14T08:43:59.587Z,94898.75
2022-12-14T08:46:29.236Z,94894.38
2022-12-14T08:48:57.605Z,94897.47
2022-12-14T08:51:26.307Z,94904.53
2022-12-14T08:53:54.677Z,94900.66
2022-12-14T08:56:26.039Z,94917.91
2022-12-14T08:58:53.035Z,94912.28
2022-12-14T09:01:30.249Z,94911.00
2022-12-14T09:04:07.843Z,94903.44
2022-12-14T09:06:38.616Z,94907.44
2022-12-14T09:09:11.952Z,94904.88
2022-12-14T09:11:43.310Z,94901.81
2022-12-14T09:14:10.715Z,94891.59
2022-12-14T09:16:37.649Z,94892.84
2022-12-14T09:19:04.526Z,94894.09
2022-12-14T09:21:31.686Z,94894.78
2022-12-14T09:23:59.840Z,94879.34
2022-12-14T09:26:27.677Z,94874.78
2022-12-14T09:28:56.475Z,94878.03
2022-12-14T09:31:27.035Z,94861.50
2022-12-14T09:33:54.817Z,94835.41
2022-12-14T09:36:25.852Z,94833.50
2022-12-14T09:38:57.435Z,94831.53
2022-12-14T09:41:33.185Z,94822.13
2022-12-14T09:44:31.430Z,94827.16
2022-12-14T09:47:19.347Z,94811.16
2022-12-14T09:50:04.944Z,94810.75
2022-12-14T09:52:40.153Z,94812.81
2022-12-14T09:55:32.340Z,94827.97
2022-12-14T09:58:03.478Z,94818.28
2022-12-14T10:00:38.075Z,94813.41
2022-12-14T10:03:44.320Z,94804.69
2022-12-14T10:06:37.590Z,94798.69
2022-12-14T10:09:14.317Z,94806.53
2022-12-14T10:12:05.823Z,94789.06
2022-12-14T10:15:06.901Z,94783.88
2022-12-14T10:18:57.759Z,94793.13
2022-12-14T10:21:18.833Z,94770.88
2022-12-14T10:24:04.072Z,94762.19
2022-12-14T10:26:41.459Z,94761.38
2022-12-14T10:29:41.537Z,94753.56
2022-12-14T10:32:10.942Z,94751.63
2022-12-14T10:34:41.241Z,94730.97
2022-12-14T10:37:22.839Z,94730.50
2022-12-14T10:39:57.584Z,94725.00
2022-12-14T10:43:01.141Z,94722.00
2022-12-14T10:46:01.258Z,94716.16
2022-12-14T10:49:16.512Z,94716.59
2022-12-14T10:51:57.380Z,94723.81
2022-12-14T10:54:29.695Z,94713.16
2022-12-14T10:56:56.679Z,94716.91
2022-12-14T10:59:25.334Z,94716.13
2022-12-14T11:02:28.026Z,94720.28
2022-12-14T11:05:01.460Z,94714.03
2022-12-14T11:07:33.779Z,94715.84
2022-12-14T11:10:36.695Z,94715.53
2022-12-14T11:13:20.776Z,94714.53
2022-12-14T11:15:51.020Z,94722.25
2022-12-14T11:18:17.875Z,94710.78
2022-12-14T11:20:53.593Z,94725.25
2022-12-14T11:23:29.543Z,94734.53
2022-12-14T11:26:00.941Z,94730.06
2022-12-14T11:28:37.548Z,94717.00
2022-12-14T11:31:25.629Z,94717.38
2022-12-14T11:33:56.051Z,94719.56
2022-12-14T11:36:31.084Z,94717.69
2022-12-14T11:39:06.662Z,94712.41
2022-12-14T11:41:40.055Z,94714.00
2022-12-14T11:44:15.957Z,94719.19
2022-12-14T11:46:53.911Z,94720.06
2022-12-14T11:49:27.392Z,94711.84
2022-12-14T11:52:10.386Z,94706.44
2022-12-14T11:54:49.654Z,94708.31
2022-12-14T11:57:38.679Z,94695.19
2022-12-14T12:00:21.633Z,94680.16
2022-12-14T12:03:06.510Z,94665.53
2022-12-14T12:05:39.750Z,94666.13
2022-12-14T12:08:18.631Z,94673.72
2022-12-14T12:10:49.957Z,94680.56
2022-12-14T12:13:22.093Z,94675.03
2022-12-14T12:15:55.493Z,94675.47
2022-12-14T12:18:35.587Z,94672.41
2022-12-14T12:21:18.781Z,94672.41
2022-12-14T12:24:19.847Z,94679.94
2022-12-14T12:26:58.603Z,94665.44
2022-12-14T12:29:29.987Z,94673.53
2022-12-14T12:32:21.121Z,94670.09
2022-12-14T12:35:04.164Z,94684.38
2022-12-14T12:37:50.879Z,94693.03
2022-12-14T12:40:29.812Z,94685.00
2022-12-14T12:43:06.610Z,94685.91
2022-12-14T12:45:45.619Z,94667.59
2022-12-14T12:48:31.930Z,94654.78
2022-12-14T12:51:12.090Z,94649.75
2022-12-14T12:53:47.877Z,94673.41
2022-12-14T12:56:25.149Z,94684.47
2022-12-14T12:58:53.488Z,94685.00
2022-12-14T13:01:38.912Z,94683.03
2022-12-14T13:04:12.644Z,94675.19
2022-12-14T13:07:05.128Z,94662.06
2022-12-14T13:09:43.260Z,94646.44
2022-12-14T13:12:56.277Z,94659.72
2022-12-14T13:15:44.998Z,94648.56
2022-12-14T13:19:08.703Z,94654.69
2022-12-14T13:21:37.313Z,94648.00
2022-12-14T13:24:06.696Z,94673.50
2022-12-14T13:30:07.635Z,94674.75
2022-12-14T13:32:50.173Z,94677.94
2022-12-14T13:35:52.222Z,94671.06
2022-12-14T13:38:57.756Z,94667.75
2022-12-14T13:41:52.570Z,94662.84
2022-12-14T13:44:44.824Z,94672.09
2022-12-14T13:47:20.117Z,94676.53
2022-12-14T13:50:26.365Z,94677.13
2022-12-14T13:52:44.246Z,94677.00
2022-12-14T13:55:53.293Z,94692.84
2022-12-14T13:58:42.655Z,94687.06
2022-12-14T14:01:22.701Z,94686.34
2022-12-14T14:03:56.674Z,94682.63
2022-12-14T14:06:36.370Z,94689.19
2022-12-14T14:09:34.029Z,94688.09
2022-12-14T14:12:07.735Z,94689.06
2022-12-14T14:14:53.533Z,94688.09
2022-12-14T14:17:45.642Z,94683.19
2022-12-14T14:20:53.800Z,94681.00
2022-12-14T14:23:23.810Z,94680.44
2022-12-14T14:26:22.598Z,94682.94
2022-12-14T14:29:24.422Z,94675.72
2022-12-14T14:31:54.068Z,94683.28
2022-12-14T14:34:42.448Z,94688.81
2022-12-14T14:37:26.243Z,94698.81
2022-12-14T14:40:23.460Z,94696.41
2022-12-14T14:42:59.146Z,94684.72
2022-12-14T14:45:35.959Z,94670.47
2022-12-14T14:48:34.442Z,94645.38
2022-12-14T14:51:15.794Z,94660.19
2022-12-14T14:53:43.259Z,94657.38
2022-12-14T14:56:39.813Z,94665.72
2022-12-14T14:59:19.034Z,94681.25
2022-12-14T15:01:53.394Z,94689.63
2022-12-14T15:04:36.846Z,94690.06
2022-12-14T15:07:08.630Z,94704.34
2022-12-14T15:09:51.449Z,94711.66
2022-12-14T15:12:45.454Z,94707.91
2022-12-14T15:15:18.867Z,94716.81
2022-12-14T15:17:46.230Z,94700.94
2022-12-14T15:20:23.875Z,94700.31
2022-12-14T15:22:53.841Z,94703.06
2022-12-14T15:25:26.599Z,94702.09
2022-12-14T15:27:55.641Z,94701.75
2022-12-14T15:30:25.634Z,94697.97
2022-12-14T15:32:56.395Z,94695.75
2022-12-14T15:35:53.016Z,94694.41
2022-12-14T15:38:31.491Z,94705.38
2022-12-14T15:41:03.251Z,94701.19
2022-12-14T15:43:30.910Z,94709.69
2022-12-14T15:46:04.206Z,94725.53
2022-12-14T15:48:36.210Z,94738.09
2022-12-14T15:51:14.750Z,94734.63
2022-12-14T15:53:49.878Z,94735.03
2022-12-14T15:56:46.994Z,94725.22
2022-12-14T15:59:35.041Z,94730.41
2022-12-14T16:02:30.632Z,94735.66
2022-12-14T16:05:02.229Z,94735.19
2022-12-14T16:07:43.035Z,94726.09
2022-12-14T16:10:24.685Z,94730.91
2022-12-14T16:13:00.023Z,94744.09
2022-12-14T16:15:28.024Z,94750.09
2022-12-14T16:18:03.222Z,94756.06
2022-12-14T16:20:38.246Z,94755.34
2022-12-14T16:23:14.159Z,94760.97
2022-12-14T16:25:59.074Z,94764.97
2022-12-14T16:28:33.431Z,94768.19
2022-12-14T16:31:18.759Z,94765.41
2022-12-14T16:33:46.642Z,94771.41
2022-12-14T16:36:25.527Z,94783.00
2022-12-14T16:38:59.741Z,94769.53
2022-12-14T16:41:39.059Z,94780.97
2022-12-14T16:44:22.641Z,94781.31
2022-12-14T16:47:04.448Z,94788.91
2022-12-14T16:49:43.040Z,94790.53
2022-12-14T16:52:09.797Z,94802.50
2022-12-14T16:54:38.084Z,94805.81
2022-12-14T16:57:22.027Z,94802.84
2022-12-14T16:59:58.089Z,94807.59
2022-12-14T17:02:40.905Z,94810.00
2022-12-14T17:05:19.199Z,94811.59
2022-12-14T17:07:46.040Z,94819.00
2022-12-14T17:10:20.773Z,94815.63
2022-12-14T17:12:49.038Z,94824.63
2022-12-14T17:15:22.690Z,94821.50
2022-12-14T17:17:53.202Z,94830.16
2022-12-14T17:20:31.689Z,94826.94
2022-12-14T17:23:01.849Z,94836.31
2022-12-14T17:25:31.684Z,94840.63
2022-12-14T17:28:00.226Z,94841.34
2022-12-14T17:30:27.218Z,94845.97
2022-12-14T17:32:55.039Z,94830.25
2022-12-14T17:35:25.742Z,94840.00
2022-12-14T17:37:53.134Z,94833.28
2022-12-14T17:40:19.934Z,94836.41
2022-12-14T17:42:53.284Z,94838.75
2022-12-14T17:45:27.721Z,94843.56
2022-12-14T17:47:55.304Z,94848.22
2022-12-14T17:50:22.850Z,94853.56
2022-12-14T17:52:52.578Z,94865.00
2022-12-14T17:55:29.207Z,94867.25
2022-12-14T17:57:56.334Z,94867.66
2022-12-14T18:00:49.300Z,94868.91
2022-12-14T18:03:18.260Z,94880.25
2022-12-14T18:05:49.348Z,94885.34
2022-12-14T18:08:18.735Z,94892.13
2022-12-14T18:10:47.326Z,94893.03
2022-12-14T18:13:14.550Z,94897.56
2022-12-14T18:15:50.630Z,94903.38
2022-12-14T18:18:23.998Z,94908.19
2022-12-14T18:20:58.026Z,94903.00
2022-12-14T18:23:25.047Z,94911.41
2022-12-14T18:25:55.136Z,94913.03
2022-12-14T18:28:22.360Z,94917.88
2022-12-14T18:30:56.427Z,94923.66
2022-12-14T18:33:26.947Z,94910.69
2022-12-14T18:35:56.405Z,94918.72
2022-12-14T18:38:24.070Z,94931.06
2022-12-14T18:40:54.584Z,94925.50
2022-12-14T18:43:27.889Z,94929.09
2022-12-14T18:45:56.259Z,94937.88
2022-12-14T18:48:24.262Z,94937.06
2022-12-14T18:50:53.910Z,94936.25
2022-12-14T18:53:23.730Z,94940.25
2022-12-14T18:55:50.674Z,94942.69
2022-12-14T18:58:24.455Z,94938.31
2022-12-14T19:00:54.745Z,94950.09
2022-12-14T19:03:23.199Z,94954.50
2022-12-14T19:05:50.676Z,94961.47
2022-12-14T19:08:18.052Z,94968.25
2022-12-14T19:10:47.911Z,94966.28
2022-12-14T19:13:25.391Z,94953.31
2022-12-14T19:15:53.846Z,94964.31
2022-12-14T19:18:20.914Z,94967.88
2022-12-14T19:20:49.701Z,94959.56
2022-12-14T19:23:19.663Z,94962.34
2022-12-14T19:25:47.063Z,94958.78
2022-12-14T19:28:42.067Z,94958.31
2022-12-14T19:31:01.839Z,94959.56
2022-12-14T19:33:29.858Z,94961.97
2022-12-14T19:35:57.112Z,94968.50
2022-12-14T19:38:23.883Z,94971.84
2022-12-14T19:41:10.975Z,94968.69
2022-12-14T19:43:38.201Z,94967.53
2022-12-14T19:46:09.801Z,94973.06
2022-12-14T19:48:38.066Z,94969.66
2022-12-14T19:51:11.661Z,94979.53
2022-12-14T19:53:40.652Z,94982.28
2022-12-14T19:56:08.191Z,94978.88
2022-12-14T19:58:35.086Z,94989.00
2022-12-14T20:01:02.117Z,94990.25
2022-12-14T20:03:29.662Z,94988.63
2022-12-14T20:05:59.329Z,94993.81
2022-12-14T20:08:28.774Z,94998.28
2022-12-14T20:10:56.174Z,94996.78
2022-12-14T20:13:25.745Z,94996.25
2022-12-14T20:15:57.992Z,95007.41
2022-12-14T20:18:26.178Z,95011.72
2022-12-14T20:20:53.137Z,95011.88
2022-12-14T20:23:21.569Z,95018.84
2022-12-14T20:25:48.864Z,95016.91
2022-12-14T20:28:15.756Z,95021.69
2022-12-14T20:30:45.294Z,95012.84
2022-12-14T20:33:12.391Z,95012.06
2022-12-14T20:35:39.570Z,95023.16
2022-12-14T20:38:06.775Z,95022.25
2022-12-14T20:40:38.405Z,95031.38
2022-12-14T20:43:06.927Z,95039.16
2022-12-14T20:45:39.167Z,95033.06
2022-12-14T20:48:06.925Z,95034.78
2022-12-14T20:50:38.465Z,95039.53
2022-12-14T20:53:06.414Z,95034.03
2022-12-14T20:55:34.644Z,95042.44
2022-12-14T20:58:01.850Z,95040.50
2022-12-14T21:00:29.116Z,95036.47
2022-12-14T21:02:56.011Z,95046.72
2022-12-14T21:05:23.048Z,95044.69
2022-12-14T21:07:49.940Z,95051.09
2022-12-14T21:10:16.705Z,95047.94
2022-12-14T21:12:43.623Z,95060.50
2022-12-14T21:15:10.504Z,95064.88
2022-12-14T21:17:37.412Z,95061.31
2022-12-14T21:20:05.108Z,95063.75
2022-12-14T21:22:32.346Z,95072.38
2022-12-14T21:25:04.402Z,95063.28
2022-12-14T21:27:33.603Z,95068.50
2022-12-14T21:30:00.708Z,95068.59
2022-12-14T21:32:27.773Z,95074.03
2022-12-14T21:34:54.559Z,95066.97
2022-12-14T21:37:22.744Z,95073.13
2022-12-14T21:39:54.916Z,95077.97
2022-12-14T21:42:24.148Z,95089.41
2022-12-14T21:44:52.731Z,95099.28
2022-12-14T21:47:28.923Z,95109.03
2022-12-14T21:49:55.784Z,95111.69
2022-12-14T21:52:26.549Z,95113.25
2022-12-14T21:54:53.294Z,95106.28
2022-12-14T21:57:42.151Z,95098.88
2022-12-14T22:00:10.971Z,95106.00
2022-12-14T22:02:37.958Z,95113.97
2022-12-14T22:05:05.270Z,95107.13
2022-12-14T22:07:33.960Z,95107.50
2022-12-14T22:10:01.262Z,95106.97
2022-12-14T22:12:28.040Z,95107.91
2022-12-14T22:14:54.854Z,95114.09
2022-12-14T22:17:21.609Z,95119.28
2022-12-14T22:19:50.658Z,95113.09
2022-12-14T22:22:17.522Z,95118.91
2022-12-14T22:24:48.093Z,95117.97
2022-12-14T22:27:14.938Z,95125.22
2022-12-14T22:29:41.751Z,95121.81
2022-12-14T22:32:11.302Z,95123.44
2022-12-14T22:34:38.137Z,95124.94
2022-12-14T22:37:04.978Z,95122.50
2022-12-14T22:39:31.755Z,95128.91
2022-12-14T22:41:58.486Z,95129.13
2022-12-14T22:44:25.290Z,95122.59
2022-12-14T22:46:52.053Z,95122.88
2022-12-14T22:49:20.030Z,95120.63
2022-12-14T22:51:47.255Z,95122.09
2022-12-14T22:54:26.382Z,95130.53
2022-12-14T22:56:59.748Z,95127.78
2022-12-14T22:59:43.081Z,95121.56
2022-12-14T23:02:10.309Z,95127.56
2022-12-14T23:04:38.157Z,95121.91
2022-12-14T23:07:05.865Z,95121.56
2022-12-14T23:09:51.724Z,95118.69
2022-12-14T23:12:37.161Z,95119.94
2022-12-14T23:15:23.164Z,95115.59
2022-12-14T23:18:08.633Z,95121.56
2022-12-14T23:20:57.442Z,95119.28
2022-12-14T23:23:42.811Z,95124.13
2022-12-14T23:26:28.217Z,95120.56
2022-12-14T23:29:13.634Z,95129.28
2022-12-14T23:31:59.077Z,95128.50
2022-12-14T23:34:44.413Z,95130.78
2022-12-14T23:37:33.406Z,95138.72
2022-12-14T23:40:18.814Z,95145.69
2022-12-14T23:43:04.037Z,95145.06
2022-12-14T23:45:49.594Z,95140.06
2022-12-14T23:48:34.779Z,95139.38
2022-12-14T23:51:20.235Z,95147.44
2022-12-14T23:54:05.674Z,95147.13
2022-12-14T23:56:50.985Z,95148.94
2022-12-14T23:59:36.291Z,95154.91
